N2324K KGWS-KEGE
Flight info
| Callsign | N2324K |
|---|---|
| Flight time | 0h 13m |
| Altitude | 9500 |
| Route | SXW |
| Aircraft | BE36/L-BDFGLORY/S |
Departure
| Time | 2026-04-22 01:24 |
|---|---|
| Airport | Glenwood Springs Municipal Airport (KGWS) |
Arrival
| Time | 2026-04-22 01:37 |
|---|---|
| Airport | Eagle County Regional Airport (KEGE) |
| Time | Latitude | Longitude | Altitude | Speed | Heading |
|---|---|---|---|---|---|
| 2026-04-22 01:21 | 39.50742 | -107.30958 | 5913 ft | 0 kts | 56° |
| 2026-04-22 01:21 | 39.50763 | -107.30933 | 5914 ft | 4 kts | 346° |
| 2026-04-22 01:22 | 39.50747 | -107.30956 | 5913 ft | 6 kts | 208° |
| 2026-04-22 01:22 | 39.50729 | -107.30959 | 5913 ft | 4 kts | 151° |
| 2026-04-22 01:22 | 39.50684 | -107.30928 | 5913 ft | 9 kts | 157° |
| 2026-04-22 01:22 | 39.50623 | -107.30914 | 5914 ft | 9 kts | 206° |
| 2026-04-22 01:23 | 39.50544 | -107.30884 | 5916 ft | 16 kts | 158° |
| 2026-04-22 01:23 | 39.50441 | -107.30820 | 5916 ft | 17 kts | 149° |
| 2026-04-22 01:23 | 39.50319 | -107.30743 | 5916 ft | 21 kts | 160° |
| 2026-04-22 01:23 | 39.50300 | -107.30717 | 5915 ft | 9 kts | 308° |
| 2026-04-22 01:24 | 39.50573 | -107.30899 | 5916 ft | 88 kts | 332° |
| 2026-04-22 01:24 | 39.51263 | -107.31333 | 6134 ft | 124 kts | 330° |
| 2026-04-22 01:24 | 39.52048 | -107.31881 | 6633 ft | 133 kts | 329° |
| 2026-04-22 01:24 | 39.52934 | -107.32409 | 7055 ft | 145 kts | 333° |
| 2026-04-22 01:25 | 39.53874 | -107.32972 | 7536 ft | 147 kts | 330° |
| 2026-04-22 01:25 | 39.54762 | -107.33553 | 8195 ft | 139 kts | 323° |
| 2026-04-22 01:25 | 39.55324 | -107.34474 | 8761 ft | 135 kts | 297° |
| 2026-04-22 01:25 | 39.55662 | -107.35213 | 8883 ft | 151 kts | 298° |
| 2026-04-22 01:26 | 39.56416 | -107.36253 | 9081 ft | 172 kts | 332° |
| 2026-04-22 01:26 | 39.57642 | -107.36264 | 9274 ft | 187 kts | 20° |
| 2026-04-22 01:26 | 39.58582 | -107.35095 | 9481 ft | 193 kts | 56° |
| 2026-04-22 01:26 | 39.59258 | -107.33600 | 9694 ft | 192 kts | 58° |
| 2026-04-22 01:27 | 39.59740 | -107.32007 | 9905 ft | 195 kts | 86° |
| 2026-04-22 01:27 | 39.59497 | -107.30279 | 10114 ft | 195 kts | 106° |
| 2026-04-22 01:27 | 39.59106 | -107.28600 | 10303 ft | 193 kts | 107° |
| 2026-04-22 01:27 | 39.58705 | -107.26920 | 10497 ft | 195 kts | 108° |
| 2026-04-22 01:28 | 39.58307 | -107.25251 | 10708 ft | 194 kts | 107° |
| 2026-04-22 01:28 | 39.57911 | -107.23570 | 10897 ft | 195 kts | 109° |
| 2026-04-22 01:28 | 39.57523 | -107.21956 | 11119 ft | 181 kts | 109° |
| 2026-04-22 01:28 | 39.57161 | -107.20424 | 11301 ft | 177 kts | 108° |
| 2026-04-22 01:29 | 39.56801 | -107.18895 | 11357 ft | 181 kts | 108° |
| 2026-04-22 01:29 | 39.56494 | -107.17259 | 11357 ft | 193 kts | 98° |
| 2026-04-22 01:29 | 39.56502 | -107.15496 | 11362 ft | 198 kts | 81° |
| 2026-04-22 01:29 | 39.56948 | -107.13805 | 11361 ft | 199 kts | 62° |
| 2026-04-22 01:30 | 39.57628 | -107.12239 | 11364 ft | 200 kts | 57° |
| 2026-04-22 01:30 | 39.58531 | -107.10921 | 11347 ft | 192 kts | 29° |
| 2026-04-22 01:30 | 39.59778 | -107.10391 | 11363 ft | 189 kts | 5° |
| 2026-04-22 01:30 | 39.61086 | -107.10140 | 11234 ft | 191 kts | 5° |
| 2026-04-22 01:31 | 39.62417 | -107.09922 | 10961 ft | 193 kts | 358° |
| 2026-04-22 01:31 | 39.63759 | -107.09966 | 10687 ft | 194 kts | 0° |
| 2026-04-22 01:31 | 39.64985 | -107.09230 | 10402 ft | 203 kts | 43° |
| 2026-04-22 01:31 | 39.65548 | -107.07573 | 10125 ft | 207 kts | 87° |
| 2026-04-22 01:32 | 39.65155 | -107.05833 | 9844 ft | 202 kts | 129° |
| 2026-04-22 01:32 | 39.64053 | -107.04758 | 9575 ft | 198 kts | 153° |
| 2026-04-22 01:32 | 39.63076 | -107.03480 | 9328 ft | 203 kts | 127° |
| 2026-04-22 01:32 | 39.62556 | -107.01798 | 9119 ft | 203 kts | 103° |
| 2026-04-22 01:33 | 39.62401 | -106.99967 | 8825 ft | 206 kts | 81° |
| 2026-04-22 01:33 | 39.62861 | -106.98250 | 8576 ft | 198 kts | 55° |
| 2026-04-22 01:33 | 39.63799 | -106.96940 | 7962 ft | 198 kts | 46° |
| 2026-04-22 01:33 | 39.64594 | -106.95650 | 7886 ft | 172 kts | 59° |
| 2026-04-22 01:34 | 39.64731 | -106.94212 | 7840 ft | 156 kts | 102° |
| 2026-04-22 01:34 | 39.64385 | -106.92917 | 7827 ft | 144 kts | 116° |
| 2026-04-22 01:34 | 39.63991 | -106.91724 | 8239 ft | 140 kts | 103° |
| 2026-04-22 01:34 | 39.64096 | -106.90557 | 8823 ft | 132 kts | 56° |
| 2026-04-22 01:35 | 39.64801 | -106.89821 | 8817 ft | 136 kts | 19° |
| 2026-04-22 01:35 | 39.65699 | -106.89533 | 8767 ft | 136 kts | 353° |
| 2026-04-22 01:35 | 39.66255 | -106.90320 | 8423 ft | 132 kts | 271° |
| 2026-04-22 01:35 | 39.66006 | -106.91416 | 8123 ft | 124 kts | 253° |
| 2026-04-22 01:36 | 39.65752 | -106.92468 | 7884 ft | 116 kts | 251° |
| 2026-04-22 01:36 | 39.65487 | -106.93478 | 7686 ft | 121 kts | 259° |
| 2026-04-22 01:36 | 39.65334 | -106.94571 | 7467 ft | 123 kts | 265° |
| 2026-04-22 01:36 | 39.64934 | -106.95491 | 7186 ft | 129 kts | 202° |
| 2026-04-22 01:37 | 39.64281 | -106.94970 | 6876 ft | 126 kts | 103° |
| 2026-04-22 01:37 | 39.64083 | -106.93905 | 6729 ft | 117 kts | 97° |
| 2026-04-22 01:37 | 39.64140 | -106.92947 | 6487 ft | 97 kts | 78° |
| 2026-04-22 01:37 | 39.64207 | -106.92275 | 6486 ft | 46 kts | 81° |
| 2026-04-22 01:38 | 39.64242 | -106.91919 | 6495 ft | 35 kts | 82° |
| 2026-04-22 01:38 | 39.64260 | -106.91617 | 6505 ft | 26 kts | 118° |
| 2026-04-22 01:38 | 39.64158 | -106.91642 | 6504 ft | 17 kts | 256° |
| 2026-04-22 01:38 | 39.64143 | -106.91797 | 6500 ft | 18 kts | 263° |
| 2026-04-22 01:39 | 39.64124 | -106.91962 | 6495 ft | 24 kts | 261° |
| 2026-04-22 01:39 | 39.64103 | -106.92172 | 6489 ft | 23 kts | 261° |
| 2026-04-22 01:39 | 39.64077 | -106.92396 | 6483 ft | 24 kts | 262° |
| 2026-04-22 01:39 | 39.64055 | -106.92603 | 6478 ft | 22 kts | 262° |
| 2026-04-22 01:40 | 39.64032 | -106.92797 | 6473 ft | 21 kts | 259° |
| 2026-04-22 01:40 | 39.64010 | -106.92981 | 6469 ft | 20 kts | 255° |
| 2026-04-22 01:40 | 39.64000 | -106.93051 | 6467 ft | 0 kts | 263° |